ADDS METAR Data INFO
IDs: Format: Raw Decoded Include TAF

Data at: 0349 UTC 20 Feb 2018

KMZZ 200335Z AUTO 16009KT 10SM SCT075 SCT100 13/13 A2997 RMK AO2 P0001 T01340127
KMZZ 200315Z AUTO 00000KT 4SM BR SCT075 OVC100 13/13 A2997 RMK AO2 P0001 T01330128
KMZZ 200255Z AUTO 00000KT 4SM BR SCT075 SCT090 OVC110 14/13 A2998 RMK AO2 P0003 60009 T01350130
KMZZ 200235Z AUTO 00000KT 7SM OVC075 14/13 A2999 RMK AO2 P0002 T01360132
KMZZ 200215Z AUTO 00000KT 7SM OVC075 14/13 A3000 RMK AO2 P0001 T01380133
KMZZ 200155Z AUTO 00000KT 5SM BR SCT047 OVC075 14/13 A2999 RMK AO2 P0003 T01380133
KMZZ 200135Z AUTO 00000KT 7SM SCT045 BKN060 OVC100 14/14 A2999 RMK AO2 P0002 T01410135
KMZZ 200115Z AUTO 00000KT 7SM -RA SCT065 SCT075 OVC100 14/14 A3000 RMK AO2 P0001 T01440137
KMZZ 200055Z AUTO 21008KT 7SM -RA SCT050 SCT070 OVC090 15/14 A3000 RMK AO2 P0003 T01460140
KMZZ 200035Z AUTO 22009KT 7SM SCT065 SCT080 OVC100 15/14 A3000 RMK AO2 P0002 T01490141
KMZZ 200015Z AUTO 22011KT 7SM SCT050 SCT070 OVC100 15/14 A3000 RMK AO2 T01500143
KMZZ 192355Z AUTO 22014G18KT 7SM SCT050 SCT085 OVC100 15/14 A2999 RMK AO2 P0003 60019 T01480144 10150 21274
KMZZ 192335Z AUTO 22013KT 7SM -RA OVC085 15/15 A2999 RMK AO2 P0002 T01500145
KMZZ 192315Z AUTO 22020G28KT 5SM BR OVC095 15/15 A2998 RMK AO2 P0001 T01470145
KMZZ 192255Z AUTO 22019G25KT 7SM -RA SCT050 SCT070 OVC095 15/14 A2998 RMK AO2 P0003 T01450144
KMZZ 192235Z AUTO 21018G21KT 5SM BR OVC095 15/14 A2998 RMK AO2 P0002 T01450144
KMZZ 192215Z AUTO 22016G23KT 5SM -RA OVC095 15/15 A2998 RMK AO2 P0001 T01450145
KMZZ 192155Z AUTO 21020G26KT 10SM -RA OVC085 15/15 A2996 RMK AO2 P0004 T01450145
KMZZ 192135Z AUTO 20025G33KT 5SM RA SCT070 OVC085 15/15 A2994 RMK AO2 P0002 T01450145
KMZZ 192115Z AUTO 21022G25KT 1 1/2SM -RA SCT019 BKN070 OVC085 15/15 A2995 RMK AO2 VIS 1/4V5 P0001 T01450145
KMZZ 192055Z AUTO 22018G26KT 5SM -RA BKN019 BKN027 OVC070 15/15 A2995 RMK AO2 P0003 60009 T01450145
KMZZ 192035Z AUTO 21022G25KT 4SM RA BKN021 BKN027 OVC070 15/15 A2995 RMK AO2 P0002 T01450145
KMZZ 192015Z AUTO 21023G29KT 5SM BR SCT047 BKN065 OVC090 15/14 A2994 RMK AO2 T01450144
KMZZ 191955Z AUTO 22021G31KT 5SM BR SCT025 BKN049 OVC100 15/15 A2995 RMK AO2 P0003 T01450145
KMZZ 191935Z AUTO 22019G25KT 7SM BKN023 BKN029 OVC060 15/15 A2994 RMK AO2 P0002 T01450145
KMZZ 191915Z AUTO 22016G25KT 7SM -RA SCT039 SCT050 OVC060 14/14 A2994 RMK AO2 P0001 T01410141
KMZZ 191855Z AUTO 22016G22KT 7SM -RA BKN060 OVC080 14/14 A2994 RMK AO2 P0003 T01400140
KMZZ 191835Z AUTO 20015G20KT 5SM -RA SCT023 SCT044 OVC060 14/14 A2993 RMK AO2 P0002 T01370137
KMZZ 191815Z AUTO 20016G21KT 4SM -RA SCT010 BKN023 OVC060 13/13 A2995 RMK AO2 P0001 T01340134
KMZZ 191755Z AUTO 20015KT 3SM -RA SCT012 BKN021 OVC060 13/13 A2996 RMK AO2 P0002 60009 T01300130 10146 21274
KMZZ 191735Z AUTO 19013G18KT 3SM -RA SCT010 BKN027 OVC048 12/12 A2996 RMK AO2 P0001 T01220122
KMZZ 191715Z AUTO 18010KT 3SM -RA SCT012 BKN021 OVC028 11/11 A2997 RMK AO2 P0001 T01070107
KMZZ 191655Z AUTO 00000KT 3SM -RA BKN010 BKN014 OVC020 10/10 A2999 RMK AO2 P0003 T00980098
KMZZ 191635Z AUTO 00000KT 4SM -RA BKN008 OVC013 10/10 A2998 RMK AO2 P0002 T00950095
KMZZ 191615Z AUTO 00000KT 2SM BR OVC006 09/09 A2998 RMK AO2 P0001 T00860086
KMZZ 191555Z AUTO 00000KT 2 1/2SM BR OVC006 09/09 A2999 RMK AO2 VIS 1 1/2V4 P0002 T00850085
KMZZ 191535Z AUTO 00000KT 2 1/2SM BR OVC006 08/08 A2999 RMK AO2 VIS 2V5 P0002 T00810081
KMZZ 191515Z AUTO 00000KT 4SM -RA OVC006 08/08 A2999 RMK AO2 P0001 T00810081
KMZZ 191455Z AUTO 00000KT 4SM -RA BKN006 OVC010 08/08 A2998 RMK AO2 P0002 60002 T00820082
KMZZ 191435Z AUTO 00000KT 4SM -RA BKN011 OVC014 09/09 A2999 RMK AO2 P0001 T00850085
KMZZ 191415Z AUTO 18008KT 3SM RA SCT004 OVC015 08/08 A2999 RMK AO2 P0001 T00840084
KMZZ 191355Z AUTO 00000KT 5SM -RA BKN004 BKN017 OVC034 08/08 A2998 RMK AO2 T00810081
KMZZ 191335Z AUTO 18008KT 2SM -RA BKN004 BKN008 OVC034 08/08 A2997 RMK AO2 T00770077
KMZZ 191315Z AUTO 19008KT 3SM -RA BKN006 SCT016 OVC034 07/07 A2998 RMK AO2 T00730073
KMZZ 191255Z AUTO 19009KT 4SM -RA BKN006 BKN016 OVC024 07/07 A2998 RMK AO2 T00710069
KMZZ 191235Z AUTO 20009KT 5SM -RA BKN006 OVC024 07/07 A2999 RMK AO2 T00700065
KMZZ 191215Z AUTO 20011KT 7SM SCT006 OVC024 07/06 A2999 RMK AO2 T00680061
KMZZ 191155Z AUTO 19010KT 5SM BR SCT008 SCT012 OVC022 07/06 A2997 RMK AO2 P0001 60001 70001 T00650056 10146 21274
KMZZ 191135Z AUTO 20013KT 7SM SCT012 OVC022 07/05 A2998 RMK AO2 P0001 T00650054
KMZZ 191115Z AUTO 21010KT 5SM -RA OVC021 06/05 A2997 RMK AO2 T00630051
KMZZ 191055Z AUTO 21012KT 7SM SCT017 OVC024 06/05 A2997 RMK AO2 T00620048
KMZZ 191035Z AUTO 21014G17KT 7SM -RA BKN017 OVC026 06/05 A2997 RMK AO2 T00620045
KMZZ 191015Z AUTO 21015KT 3SM -RA BKN017 BKN025 OVC033 07/04 A2996 RMK AO2 T00660043
KMZZ 190955Z AUTO 20015KT 10SM BKN017 BKN037 OVC045 07/04 A2994 RMK AO2 T00660042
KMZZ 190935Z AUTO 20019G23KT 7SM BKN017 OVC029 07/04 A2994 RMK AO2 T00650039
KMZZ 190915Z AUTO 19015G22KT 10SM BKN028 BKN034 OVC040 06/03 A2994 RMK AO2 T00600033
KMZZ 190855Z AUTO 19015G18KT 5SM -RA SCT040 BKN050 OVC090 06/03 A2994 RMK AO2 T00570028
KMZZ 190835Z AUTO 18015G23KT 7SM -RA SCT043 BKN070 OVC090 06/02 A2994 RMK AO2 T00550021
KMZZ 190815Z AUTO 19013KT 10SM -RA BKN055 BKN070 OVC090 06/02 A2996 RMK AO2 T00560015
KMZZ 190755Z AUTO 19015KT 7SM SCT028 BKN080 OVC100 06/01 A2997 RMK AO2 T00570010
KMZZ 190735Z AUTO 18013KT 5SM HZ BKN080 BKN090 BKN120 05/01 A2996 RMK AO2 T00470007
KMZZ 190710Z AUTO 19006KT 10SM SCT090 BKN110 04/01 A2998 RMK AO2 T00430005
KMZZ 190655Z AUTO 17009KT 5SM HZ BKN090 BKN110 04/00 A2997 RMK AO2 T00420004
KMZZ 190635Z AUTO 17008KT 7SM SCT090 SCT110 04/00 A2999 RMK AO2 T00400002
KMZZ 190615Z AUTO 17010KT 7SM SCT033 SCT110 04/00 A2999 RMK AO2 T00410001
KMZZ 190555Z AUTO 17012KT 5SM HZ SCT033 SCT055 04/00 A2999 RMK AO2 T00400001 10146 21274 401461274
KMZZ 190535Z AUTO 17012KT 10SM CLR 04/00 A3000 RMK AO2 T00380001
KMZZ 190515Z AUTO 17012KT 10SM SCT050 SCT070 04/00 A3001 RMK AO2 T00350001
KMZZ 190455Z AUTO 17010KT 7SM SCT055 BKN070 03/00 A3003 RMK AO2 T00310000
KMZZ 190435Z AUTO 17010KT 10SM CLR 03/00 A3003 RMK AO2 T00300000
KMZZ 190415Z AUTO 16010KT 7SM CLR 03/00 A3003 RMK AO2 T00290000
KMZZ 190355Z AUTO 16011KT 10SM CLR 03/00 A3004 RMK AO2 T00261001
KMZZ 190335Z AUTO 15010KT 4SM HZ CLR 02/00 A3005 RMK AO2 T00231004
KMZZ 190315Z AUTO 16009KT 5SM UP CLR 02/00 A3006 RMK AO2 T00231005
KMZZ 190255Z AUTO 15010KT 10SM CLR 02/00 A3007 RMK AO2 T00201005
KMZZ 190235Z AUTO 14009G14KT 7SM CLR 02/00 A3008 RMK AO2 T00241005
KMZZ 190215Z AUTO 14010KT 10SM CLR 03/00 A3009 RMK AO2 T00271005
KMZZ 190155Z AUTO 14009KT 10SM CLR 03/00 A3010 RMK AO2 T00301005
KMZZ 190135Z AUTO 14010KT 7SM CLR 03/00 A3011 RMK AO2 T00301003
KMZZ 190115Z AUTO 14009KT 7SM CLR 03/00 A3012 RMK AO2 T00301001
KMZZ 190055Z AUTO 14009KT 10SM CLR 03/00 A3012 RMK AO2 T00291001
KMZZ 190035Z AUTO 13008KT 10SM CLR 03/00 A3013 RMK AO2 T00321003
KMZZ 190015Z AUTO 14008KT 10SM CLR 03/00 A3014 RMK AO2 T00281003
KMZZ 182355Z AUTO 00000KT 5SM HZ CLR 03/00 A3015 RMK AO2 T00321003 10146 21274
KMZZ 182335Z AUTO 00000KT 10SM CLR 04/00 A3015 RMK AO2 T00351002
KMZZ 182315Z AUTO 00000KT 10SM CLR 04/00 A3016 RMK AO2 T00420000
KMZZ 182255Z AUTO 14006KT 7SM CLR 05/00 A3016 RMK AO2 T00491001
KMZZ 182235Z AUTO 15008KT 7SM CLR 05/00 A3017 RMK AO2 T00521003
KMZZ 182215Z AUTO 14009KT 5SM HZ CLR 05/00 A3018 RMK AO2 T00531001
KMZZ 182155Z AUTO 15008KT 10SM CLR 05/00 A3019 RMK AO2 T00531001
KMZZ 182135Z AUTO 15010G14KT 10SM CLR 05/00 A3019 RMK AO2 T00521002
KMZZ 182115Z AUTO 15010KT 7SM CLR 05/00 A3019 RMK AO2 T00501001
KMZZ 182055Z AUTO 16010KT 5SM HZ CLR 05/00 A3020 RMK AO2 T00491001
KMZZ 182035Z AUTO 15007KT 10SM CLR 05/00 A3021 RMK AO2 T00480000
KMZZ 182015Z AUTO 14010KT 7SM CLR 04/00 A3022 RMK AO2 T00440000
KMZZ 181955Z AUTO 15008KT 10SM CLR 04/00 A3023 RMK AO2 T00371001
KMZZ 181935Z AUTO 15008KT 7SM SCT017 03/00 A3025 RMK AO2 T00311003
KMZZ 181915Z AUTO 00000KT 10SM CLR 03/00 A3026 RMK AO2 T00271005
KMZZ 181855Z AUTO 14006KT 7SM CLR 02/M01 A3028 RMK AO2 T00221007
KMZZ 181835Z AUTO 17008KT 10SM SCT014 02/M01 A3029 RMK AO2 T00171009
KMZZ 181815Z AUTO 16009KT 4SM BR SCT014 01/M01 A3030 RMK AO2 T00121013
KMZZ 181755Z AUTO 17009G14KT 7SM BKN014 01/M02 A3032 RMK AO2 T00081016 10146 21274
KMZZ 181735Z AUTO 17011KT 5SM HZ BKN012 00/M02 A3032 RMK AO2 T00041021
KMZZ 181715Z AUTO 17011KT 7SM BKN012 00/M02 A3032 RMK AO2 T00001024
KMZZ 181655Z AUTO 16012KT 4SM HZ BKN012 00/M03 A3034 RMK AO2 T10021027
KMZZ 181635Z AUTO 16011KT 5SM BR BKN012 M01/M03 A3033 RMK AO2 T10061031
KMZZ 181615Z AUTO 16009KT 7SM OVC012 M01/M03 A3034 RMK AO2 T10121033
KMZZ 181555Z AUTO 17013KT 7SM OVC012 M02/M04 A3034 RMK AO2 T10171036